createdAt,value
2023-01-15T00:00:28.793Z,99023.06
2023-01-15T00:02:55.932Z,99017.03
2023-01-15T00:05:24.386Z,99018.75
2023-01-15T00:07:52.127Z,99006.69
2023-01-15T00:10:18.590Z,98994.63
2023-01-15T00:12:44.991Z,98992.00
2023-01-15T00:15:14.301Z,98988.56
2023-01-15T00:17:40.968Z,98989.44
2023-01-15T00:20:08.145Z,98986.84
2023-01-15T00:22:34.535Z,98983.41
2023-01-15T00:25:19.514Z,98982.53
2023-01-15T00:27:45.989Z,98980.78
2023-01-15T00:30:14.789Z,98986.91
2023-01-15T00:32:41.850Z,98972.22
2023-01-15T00:35:12.824Z,98975.69
2023-01-15T00:37:39.224Z,98987.78
2023-01-15T00:40:06.070Z,98989.50
2023-01-15T00:42:32.490Z,98992.09
2023-01-15T00:44:59.015Z,98980.88
2023-01-15T00:47:25.695Z,98988.66
2023-01-15T00:49:52.150Z,98987.81
2023-01-15T00:52:18.569Z,98986.94
2023-01-15T00:54:45.324Z,98988.66
2023-01-15T00:57:11.759Z,98991.25
2023-01-15T00:59:38.281Z,98980.88
2023-01-15T01:02:05.012Z,98983.47
2023-01-15T01:04:31.527Z,98976.59
2023-01-15T01:06:58.101Z,98975.72
2023-01-15T01:09:24.626Z,98982.63
2023-01-15T01:11:51.103Z,98982.63
2023-01-15T01:14:17.608Z,98996.44
2023-01-15T01:16:44.138Z,98996.47
2023-01-15T01:19:18.446Z,99003.38
2023-01-15T01:21:45.431Z,99005.97
2023-01-15T01:24:14.087Z,99012.00
2023-01-15T01:26:40.960Z,99011.97
2023-01-15T01:29:07.523Z,99018.03
2023-01-15T01:31:34.051Z,99004.19
2023-01-15T01:34:00.685Z,98993.78
2023-01-15T01:36:38.073Z,99024.00
2023-01-15T01:39:05.735Z,99018.84
2023-01-15T01:41:32.879Z,99029.19
2023-01-15T01:44:08.988Z,99030.94
2023-01-15T01:46:36.230Z,99028.31
2023-01-15T01:49:05.267Z,99021.41
2023-01-15T01:51:36.112Z,99020.53
2023-01-15T01:54:03.063Z,99029.16
2023-01-15T01:56:30.947Z,99032.66
2023-01-15T01:58:57.410Z,99049.91
2023-01-15T02:01:25.603Z,99037.81
2023-01-15T02:03:53.376Z,99037.78
2023-01-15T02:06:19.931Z,99035.19
2023-01-15T02:08:46.378Z,99037.84
2023-01-15T02:11:18.233Z,99034.38
2023-01-15T02:13:53.515Z,99027.47
2023-01-15T02:16:24.206Z,99041.28
2023-01-15T02:19:16.679Z,99047.31
2023-01-15T02:22:15.503Z,99055.94
2023-01-15T02:25:00.663Z,99086.16
2023-01-15T02:27:27.898Z,99091.09
2023-01-15T02:30:10.836Z,99099.44
2023-01-15T02:32:45.505Z,99098.47
2023-01-15T02:35:34.803Z,99093.81
2023-01-15T02:38:05.637Z,99133.41
2023-01-15T02:40:32.808Z,99123.53
2023-01-15T02:42:59.447Z,99131.22
2023-01-15T02:45:29.431Z,99131.78
2023-01-15T02:47:58.661Z,99139.19
2023-01-15T02:50:35.909Z,99124.34
2023-01-15T02:53:05.816Z,99138.00
2023-01-15T02:55:35.528Z,99171.22
2023-01-15T02:58:05.153Z,99172.94
2023-01-15T03:00:34.305Z,99171.88
2023-01-15T03:03:28.564Z,99173.28
2023-01-15T03:06:02.347Z,99193.88
2023-01-15T03:08:29.255Z,99181.72
2023-01-15T03:10:58.632Z,99219.97
2023-01-15T03:13:31.996Z,99206.81
2023-01-15T03:16:22.312Z,99211.09
2023-01-15T03:18:53.899Z,99210.91
2023-01-15T03:21:23.379Z,99219.44
2023-01-15T03:23:52.621Z,99227.97
2023-01-15T03:26:19.308Z,99227.97
2023-01-15T03:28:46.765Z,99237.38
2023-01-15T03:31:13.271Z,99222.63
2023-01-15T03:33:40.651Z,99227.75
2023-01-15T03:36:07.842Z,99232.78
2023-01-15T03:38:36.915Z,99244.72
2023-01-15T03:41:16.573Z,99237.56
2023-01-15T03:43:55.485Z,99242.53
2023-01-15T03:46:59.700Z,99238.88
2023-01-15T03:49:33.212Z,99253.25
2023-01-15T03:52:03.832Z,99249.72
2023-01-15T03:54:41.302Z,99241.63
2023-01-15T03:57:13.876Z,99242.53
2023-01-15T03:59:58.129Z,99238.25
2023-01-15T04:02:25.339Z,99255.41
2023-01-15T04:04:53.511Z,99258.84
2023-01-15T04:07:20.615Z,99261.38
2023-01-15T04:09:47.266Z,99254.41
2023-01-15T04:12:13.764Z,99241.53
2023-01-15T04:14:40.335Z,99236.47
2023-01-15T04:17:07.102Z,99228.66
2023-01-15T04:19:33.856Z,99214.97
2023-01-15T04:22:00.332Z,99218.38
2023-01-15T04:24:26.958Z,99225.16
2023-01-15T04:26:53.483Z,99226.94
2023-01-15T04:29:20.181Z,99224.34
2023-01-15T04:31:46.775Z,99220.06
2023-01-15T04:34:13.250Z,99208.94
2023-01-15T04:36:39.736Z,99202.97
2023-01-15T04:39:06.274Z,99190.06
2023-01-15T04:41:51.387Z,99183.16
2023-01-15T04:44:17.963Z,99186.66
2023-01-15T04:46:45.935Z,99193.53
2023-01-15T04:49:17.122Z,99187.41
2023-01-15T04:51:44.321Z,99184.91
2023-01-15T04:54:12.689Z,99194.41
2023-01-15T04:56:41.530Z,99182.41
2023-01-15T04:59:08.607Z,99164.38
2023-01-15T05:01:35.472Z,99178.97
2023-01-15T05:04:02.205Z,99178.16
2023-01-15T05:06:29.196Z,99172.13
2023-01-15T05:08:55.664Z,99174.75
2023-01-15T05:11:22.168Z,99169.50
2023-01-15T05:13:48.631Z,99175.47
2023-01-15T05:16:26.726Z,99159.09
2023-01-15T05:18:54.712Z,99167.66
2023-01-15T05:21:26.747Z,99164.03
2023-01-15T05:23:55.893Z,99151.09
2023-01-15T05:26:22.855Z,99147.56
2023-01-15T05:28:49.800Z,99158.72
2023-01-15T05:31:18.298Z,99147.47
2023-01-15T05:33:46.933Z,99140.56
2023-01-15T05:36:22.264Z,99139.63
2023-01-15T05:38:48.776Z,99136.19
2023-01-15T05:41:36.558Z,99130.13
2023-01-15T05:44:05.792Z,99129.22
2023-01-15T05:46:33.917Z,99128.34
2023-01-15T05:49:07.121Z,99132.63
2023-01-15T05:51:35.676Z,99128.34
2023-01-15T05:54:02.637Z,99136.06
2023-01-15T05:56:29.101Z,99151.56
2023-01-15T05:58:55.725Z,99148.13
2023-01-15T06:01:22.702Z,99161.00
2023-01-15T06:03:49.451Z,99159.34
2023-01-15T06:06:18.090Z,99161.97
2023-01-15T06:08:45.321Z,99159.38
2023-01-15T06:11:12.028Z,99156.03
2023-01-15T06:13:41.861Z,99151.75
2023-01-15T06:16:10.787Z,99159.50
2023-01-15T06:18:38.649Z,99156.91
2023-01-15T06:21:06.790Z,99134.63
2023-01-15T06:23:36.609Z,99162.97
2023-01-15T06:26:05.064Z,99139.69
2023-01-15T06:28:31.777Z,99145.72
2023-01-15T06:30:58.234Z,99162.91
2023-01-15T06:33:24.809Z,99173.22
2023-01-15T06:35:52.304Z,99175.81
2023-01-15T06:38:18.836Z,99178.41
2023-01-15T06:40:45.340Z,99172.44
2023-01-15T06:43:30.510Z,99165.63
2023-01-15T06:46:16.292Z,99175.09
2023-01-15T06:48:43.276Z,99183.66
2023-01-15T06:51:09.936Z,99181.94
2023-01-15T06:53:36.409Z,99181.94
2023-01-15T06:56:02.884Z,99189.66
2023-01-15T06:58:29.309Z,99181.06
2023-01-15T07:00:56.709Z,99181.06
2023-01-15T07:03:23.646Z,99187.91
2023-01-15T07:05:50.194Z,99195.59
2023-01-15T07:08:16.656Z,99193.81
2023-01-15T07:10:43.313Z,99198.97
2023-01-15T07:13:10.261Z,99199.84
2023-01-15T07:15:39.078Z,99206.72
2023-01-15T07:18:05.700Z,99207.50
2023-01-15T07:20:32.197Z,99209.16
2023-01-15T07:22:58.712Z,99204.91
2023-01-15T07:25:25.198Z,99200.56
2023-01-15T07:27:51.722Z,99201.44
2023-01-15T07:30:18.398Z,99200.56
2023-01-15T07:32:44.866Z,99191.06
2023-01-15T07:35:11.334Z,99188.50
2023-01-15T07:37:39.603Z,99184.16
2023-01-15T07:40:06.297Z,99192.81
2023-01-15T07:42:51.268Z,99195.44
2023-01-15T07:45:36.427Z,99187.72
2023-01-15T07:48:21.508Z,99194.63
2023-01-15T07:50:48.013Z,99196.28
2023-01-15T07:53:14.490Z,99192.06
2023-01-15T07:55:40.978Z,99196.41
2023-01-15T07:58:07.442Z,99193.81
2023-01-15T08:00:33.929Z,99212.78
2023-01-15T08:03:00.391Z,99229.13
2023-01-15T08:05:26.870Z,99232.56
2023-01-15T08:07:53.367Z,99230.00
2023-01-15T08:10:19.997Z,99234.31
2023-01-15T08:13:08.060Z,99222.25
2023-01-15T08:15:38.625Z,99224.00
2023-01-15T08:18:05.252Z,99220.50
2023-01-15T08:20:31.785Z,99233.44
2023-01-15T08:23:01.062Z,99238.63
2023-01-15T08:25:27.645Z,99240.38
2023-01-15T08:27:54.998Z,99246.38
2023-01-15T08:30:24.466Z,99251.66
2023-01-15T08:32:51.102Z,99239.72
2023-01-15T08:35:17.665Z,99238.03
2023-01-15T08:37:44.260Z,99251.03
2023-01-15T08:40:11.725Z,99253.59
2023-01-15T08:42:38.649Z,99233.06
2023-01-15T08:45:08.815Z,99251.13
2023-01-15T08:47:37.269Z,99258.91
2023-01-15T08:50:05.110Z,99259.03
2023-01-15T08:52:31.567Z,99272.81
2023-01-15T08:54:58.080Z,99271.22
2023-01-15T08:57:24.609Z,99272.97
2023-01-15T08:59:51.082Z,99271.25
2023-01-15T09:02:18.359Z,99263.59
2023-01-15T09:04:45.884Z,99258.59
2023-01-15T09:07:12.932Z,99277.56
2023-01-15T09:09:39.472Z,99277.63
2023-01-15T09:12:06.006Z,99276.78
2023-01-15T09:14:58.673Z,99268.31
2023-01-15T09:17:18.886Z,99273.78
2023-01-15T09:19:46.080Z,99267.78
2023-01-15T09:22:12.552Z,99260.84
2023-01-15T09:24:39.039Z,99264.28
2023-01-15T09:27:05.502Z,99258.25
2023-01-15T09:29:31.952Z,99257.38
2023-01-15T09:31:58.418Z,99270.16
2023-01-15T09:34:24.862Z,99254.72
2023-01-15T09:36:51.357Z,99277.13
2023-01-15T09:39:17.890Z,99265.13
2023-01-15T09:42:05.590Z,99257.38
2023-01-15T09:44:43.482Z,99270.31
2023-01-15T09:47:18.788Z,99275.50
2023-01-15T09:50:25.821Z,99278.19
2023-01-15T09:53:17.862Z,99286.88
2023-01-15T09:55:49.009Z,99276.63
2023-01-15T09:58:18.023Z,99276.63
2023-01-15T10:00:47.276Z,99261.94
2023-01-15T10:03:32.338Z,99268.88
2023-01-15T10:05:58.773Z,99262.84
2023-01-15T10:08:41.216Z,99262.97
2023-01-15T10:11:17.659Z,99263.69
2023-01-15T10:14:06.693Z,99258.53
2023-01-15T10:16:36.059Z,99264.56
2023-01-15T10:19:03.053Z,99272.28
2023-01-15T10:21:45.412Z,99265.44
2023-01-15T10:24:18.506Z,99262.97
2023-01-15T10:26:54.841Z,99261.31
2023-01-15T10:29:53.062Z,99276.81
2023-01-15T10:32:37.983Z,99281.06
2023-01-15T10:35:52.647Z,99269.06
2023-01-15T10:38:48.596Z,99267.34
2023-01-15T10:41:37.082Z,99269.06
2023-01-15T10:44:18.083Z,99264.78
2023-01-15T10:46:50.205Z,99257.94
2023-01-15T10:49:17.868Z,99259.72
2023-01-15T10:51:45.406Z,99258.84
2023-01-15T10:54:28.826Z,99259.00
2023-01-15T10:57:06.080Z,99264.28
2023-01-15T11:00:11.112Z,99259.09
2023-01-15T11:03:04.004Z,99254.84
2023-01-15T11:05:32.263Z,99264.34
2023-01-15T11:08:39.363Z,99254.06
2023-01-15T11:10:45.913Z,99260.16
2023-01-15T11:13:39.155Z,99245.59
2023-01-15T11:16:44.534Z,99261.16
2023-01-15T11:19:42.402Z,99248.28
2023-01-15T11:22:11.581Z,99255.19
2023-01-15T11:24:45.981Z,99246.63
2023-01-15T11:27:18.686Z,99241.47
2023-01-15T11:29:45.727Z,99250.13
2023-01-15T11:32:22.675Z,99239.81
2023-01-15T11:35:16.943Z,99269.06
2023-01-15T11:37:43.476Z,99275.97
2023-01-15T11:40:17.575Z,99273.28
2023-01-15T11:43:07.850Z,99266.44
2023-01-15T11:45:52.986Z,99271.59
2023-01-15T11:48:42.583Z,99266.47
2023-01-15T11:51:14.170Z,99250.13
2023-01-15T11:53:46.249Z,99263.09
2023-01-15T11:56:16.167Z,99265.69
2023-01-15T11:58:48.113Z,99258.91
2023-01-15T12:01:23.436Z,99262.41
2023-01-15T12:03:50.060Z,99244.44
2023-01-15T12:06:19.719Z,99246.19
2023-01-15T12:09:00.396Z,99263.53
2023-01-15T12:12:02.374Z,99258.47
2023-01-15T12:14:50.386Z,99258.53
2023-01-15T12:17:37.427Z,99262.03
2023-01-15T12:20:24.759Z,99274.16
2023-01-15T12:23:09.144Z,99263.84
2023-01-15T12:25:51.971Z,99268.16
2023-01-15T12:28:24.547Z,99269.94
2023-01-15T12:31:08.733Z,99274.16
2023-01-15T12:33:45.450Z,99277.53
2023-01-15T12:36:17.994Z,99273.16
2023-01-15T12:38:44.341Z,99261.06
2023-01-15T12:41:14.094Z,99272.19
2023-01-15T12:44:03.458Z,99264.47
2023-01-15T12:46:32.151Z,99273.03
2023-01-15T12:49:06.366Z,99269.59
2023-01-15T12:51:38.859Z,99262.66
2023-01-15T12:54:13.646Z,99260.91
2023-01-15T12:57:02.842Z,99245.28
2023-01-15T12:59:48.478Z,99262.50
2023-01-15T13:02:22.218Z,99255.63
2023-01-15T13:04:53.626Z,99263.34
2023-01-15T13:07:45.165Z,99258.16
2023-01-15T13:10:25.096Z,99242.63
2023-01-15T13:12:55.975Z,99246.06
2023-01-15T13:15:27.276Z,99256.41
2023-01-15T13:18:26.624Z,99259.81
2023-01-15T13:20:55.162Z,99267.50
2023-01-15T13:23:39.168Z,99269.22
2023-01-15T13:26:22.333Z,99280.31
2023-01-15T13:29:10.395Z,99278.56
2023-01-15T13:31:51.062Z,99287.22
2023-01-15T13:34:42.545Z,99290.81
2023-01-15T13:37:17.931Z,99297.66
2023-01-15T13:39:45.596Z,99301.16
2023-01-15T13:42:34.380Z,99308.91
2023-01-15T13:45:19.107Z,99308.97
2023-01-15T13:47:52.686Z,99316.72
2023-01-15T13:50:33.895Z,99327.09
2023-01-15T13:53:40.858Z,99326.31
2023-01-15T13:56:09.632Z,99330.69
2023-01-15T13:59:01.247Z,99340.13
2023-01-15T14:01:30.737Z,99326.22
2023-01-15T14:04:09.360Z,99321.88
2023-01-15T14:06:48.826Z,99321.81
2023-01-15T14:09:18.196Z,99320.81
2023-01-15T14:12:06.673Z,99323.31
2023-01-15T14:14:57.592Z,99312.91
2023-01-15T14:18:07.230Z,99313.63
2023-01-15T14:20:44.451Z,99308.25
2023-01-15T14:23:46.004Z,99320.22
2023-01-15T14:26:18.896Z,99315.78
2023-01-15T14:28:57.939Z,99319.97
2023-01-15T14:31:40.847Z,99323.31
2023-01-15T14:34:20.637Z,99324.06
2023-01-15T14:37:04.334Z,99332.75
2023-01-15T14:39:36.744Z,99340.31
2023-01-15T14:42:26.336Z,99338.44
2023-01-15T14:44:58.179Z,99335.66
2023-01-15T14:47:28.955Z,99329.63
2023-01-15T14:50:02.078Z,99339.00
2023-01-15T14:52:28.620Z,99330.31
2023-01-15T14:54:55.768Z,99343.94
2023-01-15T14:57:23.661Z,99343.84
2023-01-15T14:59:55.235Z,99338.63
2023-01-15T15:02:31.701Z,99335.13
2023-01-15T15:04:59.194Z,99332.47
2023-01-15T15:07:36.062Z,99324.63
2023-01-15T15:10:31.885Z,99321.94
2023-01-15T15:13:05.225Z,99330.50
2023-01-15T15:15:39.796Z,99327.00
2023-01-15T15:18:12.442Z,99319.16
2023-01-15T15:20:41.855Z,99331.06
2023-01-15T15:23:18.889Z,99336.94
2023-01-15T15:25:52.878Z,99315.41
2023-01-15T15:28:19.382Z,99320.59
2023-01-15T15:30:46.522Z,99318.69
2023-01-15T15:33:20.942Z,99315.13
2023-01-15T15:35:50.806Z,99328.94
2023-01-15T15:38:20.577Z,99339.19
2023-01-15T15:40:53.252Z,99337.44
2023-01-15T15:44:00.967Z,99338.41
2023-01-15T15:46:50.624Z,99349.63
2023-01-15T15:49:17.611Z,99340.28
2023-01-15T15:51:54.205Z,99332.41
2023-01-15T15:54:23.385Z,99332.41
2023-01-15T15:56:55.834Z,99328.88
2023-01-15T15:59:30.854Z,99341.06
2023-01-15T16:02:00.410Z,99342.72
2023-01-15T16:04:27.305Z,99344.44
2023-01-15T16:06:53.803Z,99334.28
2023-01-15T16:09:22.157Z,99336.00
2023-01-15T16:11:50.225Z,99336.03
2023-01-15T16:14:17.275Z,99352.44
2023-01-15T16:16:44.255Z,99341.31
2023-01-15T16:19:16.491Z,99349.03
2023-01-15T16:21:43.103Z,99347.41
2023-01-15T16:24:22.710Z,99327.66
2023-01-15T16:26:57.555Z,99321.59
2023-01-15T16:29:29.771Z,99330.34
2023-01-15T16:31:59.733Z,99334.63
2023-01-15T16:34:31.052Z,99327.78
2023-01-15T16:36:58.096Z,99318.31
2023-01-15T16:39:26.667Z,99324.41
2023-01-15T16:41:59.764Z,99329.63
2023-01-15T16:44:44.055Z,99325.31
2023-01-15T16:47:22.827Z,99322.81
2023-01-15T16:49:49.576Z,99315.91
2023-01-15T16:52:54.990Z,99324.47
2023-01-15T16:55:33.548Z,99325.34
2023-01-15T16:58:12.229Z,99320.19
2023-01-15T17:00:40.925Z,99310.75
2023-01-15T17:03:24.444Z,99323.72
2023-01-15T17:05:56.576Z,99327.09
2023-01-15T17:08:32.381Z,99326.22
2023-01-15T17:11:01.125Z,99336.53
2023-01-15T17:13:38.845Z,99333.84
2023-01-15T17:16:19.982Z,99334.66
2023-01-15T17:18:47.892Z,99353.56
2023-01-15T17:21:18.777Z,99357.72
2023-01-15T17:23:46.107Z,99349.16
2023-01-15T17:26:19.186Z,99348.25
2023-01-15T17:28:46.654Z,99355.06
2023-01-15T17:31:33.957Z,99354.19
2023-01-15T17:34:02.284Z,99351.66
2023-01-15T17:36:29.380Z,99361.88
2023-01-15T17:38:56.076Z,99359.34
2023-01-15T17:41:23.400Z,99363.69
2023-01-15T17:43:50.411Z,99367.13
2023-01-15T17:46:17.359Z,99362.00
2023-01-15T17:48:44.236Z,99362.16
2023-01-15T17:51:13.659Z,99360.50
2023-01-15T17:53:40.280Z,99366.50
2023-01-15T17:56:25.820Z,99369.09
2023-01-15T17:59:11.137Z,99365.69
2023-01-15T18:01:59.446Z,99364.75
2023-01-15T18:04:51.160Z,99374.25
2023-01-15T18:07:21.707Z,99368.22
2023-01-15T18:09:50.297Z,99362.09
2023-01-15T18:12:16.815Z,99366.44
2023-01-15T18:14:43.347Z,99359.50
2023-01-15T18:17:09.935Z,99369.06
2023-01-15T18:19:36.390Z,99378.47
2023-01-15T18:22:02.940Z,99374.94
2023-01-15T18:24:29.462Z,99367.25
2023-01-15T18:26:55.993Z,99374.94
2023-01-15T18:29:22.489Z,99374.06
2023-01-15T18:31:49.020Z,99375.78
2023-01-15T18:34:15.511Z,99382.63
2023-01-15T18:36:42.022Z,99392.91
2023-01-15T18:39:11.939Z,99393.75
2023-01-15T18:41:38.682Z,99399.72
2023-01-15T18:44:32.186Z,99402.31
2023-01-15T18:47:01.127Z,99404.00
2023-01-15T18:49:28.450Z,99409.16
2023-01-15T18:52:13.738Z,99407.44
2023-01-15T18:54:40.219Z,99404.81
2023-01-15T18:57:06.719Z,99400.47
2023-01-15T18:59:33.288Z,99420.41
2023-01-15T19:02:00.209Z,99422.97
2023-01-15T19:04:26.929Z,99418.59
2023-01-15T19:06:53.938Z,99413.56
2023-01-15T19:09:21.350Z,99407.59
2023-01-15T19:11:47.851Z,99415.31
2023-01-15T19:14:32.959Z,99417.91
2023-01-15T19:17:18.192Z,99417.00
2023-01-15T19:19:44.653Z,99417.06
2023-01-15T19:22:29.686Z,99433.50
2023-01-15T19:24:56.492Z,99428.22
2023-01-15T19:27:23.046Z,99433.53
2023-01-15T19:29:49.501Z,99427.50
2023-01-15T19:32:15.959Z,99442.03
2023-01-15T19:34:42.452Z,99437.91
2023-01-15T19:37:08.939Z,99437.84
2023-01-15T19:39:35.436Z,99435.38
2023-01-15T19:42:20.515Z,99442.31
2023-01-15T19:45:05.588Z,99443.09
2023-01-15T19:47:54.067Z,99436.28
2023-01-15T19:50:23.954Z,99435.31
2023-01-15T19:52:52.724Z,99436.13
2023-01-15T19:55:20.477Z,99431.00
2023-01-15T19:57:48.864Z,99436.13
2023-01-15T20:00:17.699Z,99435.28
2023-01-15T20:02:45.693Z,99438.50
2023-01-15T20:05:13.492Z,99444.56
2023-01-15T20:07:40.211Z,99429.88
2023-01-15T20:10:09.603Z,99434.94
2023-01-15T20:12:54.692Z,99440.06
2023-01-15T20:15:21.298Z,99427.84
2023-01-15T20:17:47.846Z,99437.25
2023-01-15T20:20:14.709Z,99435.53
2023-01-15T20:22:41.175Z,99438.94
2023-01-15T20:25:08.276Z,99433.72
2023-01-15T20:27:37.431Z,99429.34
2023-01-15T20:30:09.344Z,99431.91
2023-01-15T20:32:37.074Z,99435.38
2023-01-15T20:35:06.575Z,99428.47
2023-01-15T20:37:33.363Z,99432.75
2023-01-15T20:39:59.840Z,99436.19
2023-01-15T20:42:46.935Z,99425.88
2023-01-15T20:45:15.179Z,99424.84
2023-01-15T20:48:01.266Z,99420.53
2023-01-15T20:50:30.372Z,99419.59
2023-01-15T20:52:58.737Z,99411.75
2023-01-15T20:55:45.592Z,99403.97
2023-01-15T20:58:16.375Z,99414.19
2023-01-15T21:00:42.951Z,99411.63
2023-01-15T21:03:11.060Z,99403.72
2023-01-15T21:05:37.640Z,99397.59
2023-01-15T21:08:04.290Z,99401.84
2023-01-15T21:10:30.795Z,99407.78
2023-01-15T21:12:57.268Z,99405.94
2023-01-15T21:15:23.753Z,99405.03
2023-01-15T21:17:50.235Z,99401.63
2023-01-15T21:20:17.014Z,99408.44
2023-01-15T21:22:44.353Z,99405.72
2023-01-15T21:25:11.268Z,99411.66
2023-01-15T21:27:38.024Z,99409.78
2023-01-15T21:30:06.077Z,99409.78
2023-01-15T21:32:32.871Z,99413.19
2023-01-15T21:34:59.338Z,99413.19
2023-01-15T21:37:25.863Z,99413.19
2023-01-15T21:39:52.324Z,99416.66
2023-01-15T21:42:39.452Z,99412.28
2023-01-15T21:45:06.740Z,99411.44
2023-01-15T21:47:33.872Z,99411.44
2023-01-15T21:50:00.360Z,99406.28
2023-01-15T21:52:29.383Z,99415.72
2023-01-15T21:54:55.939Z,99406.16
2023-01-15T21:57:22.476Z,99416.38
2023-01-15T21:59:49.137Z,99403.50
2023-01-15T22:02:19.073Z,99406.03
2023-01-15T22:04:46.010Z,99399.91
2023-01-15T22:07:12.661Z,99401.63
2023-01-15T22:09:39.147Z,99398.91
2023-01-15T22:12:06.010Z,99409.16
2023-01-15T22:14:33.075Z,99399.63
2023-01-15T22:17:02.242Z,99406.44
2023-01-15T22:19:30.295Z,99400.28
2023-01-15T22:22:02.746Z,99404.44
2023-01-15T22:24:31.091Z,99408.59
2023-01-15T22:26:57.746Z,99412.06
2023-01-15T22:29:32.653Z,99412.00
2023-01-15T22:31:59.630Z,99408.47
2023-01-15T22:34:27.545Z,99409.22
2023-01-15T22:36:54.159Z,99405.75
2023-01-15T22:39:21.394Z,99405.81
2023-01-15T22:42:06.359Z,99406.69
2023-01-15T22:44:33.612Z,99410.91
2023-01-15T22:47:00.156Z,99411.78
2023-01-15T22:49:27.359Z,99407.47
2023-01-15T22:51:53.955Z,99407.41
2023-01-15T22:54:20.516Z,99407.41
2023-01-15T22:56:47.187Z,99403.09
2023-01-15T22:59:13.959Z,99403.91
2023-01-15T23:01:40.931Z,99396.97
2023-01-15T23:04:15.829Z,99396.84
2023-01-15T23:06:42.600Z,99404.47
2023-01-15T23:09:09.047Z,99404.47
2023-01-15T23:11:35.527Z,99408.72
2023-01-15T23:14:02.194Z,99405.28
2023-01-15T23:16:28.670Z,99399.22
2023-01-15T23:18:55.385Z,99394.84
2023-01-15T23:21:23.967Z,99393.91
2023-01-15T23:23:55.076Z,99389.53
2023-01-15T23:26:22.091Z,99400.59
2023-01-15T23:28:48.642Z,99385.09
2023-01-15T23:31:15.144Z,99386.69
2023-01-15T23:33:41.712Z,99391.91
2023-01-15T23:36:09.755Z,99391.06
2023-01-15T23:38:36.743Z,99388.50
2023-01-15T23:41:11.237Z,99392.81
2023-01-15T23:43:56.874Z,99381.66
2023-01-15T23:46:32.970Z,99389.31
2023-01-15T23:49:00.323Z,99387.56
2023-01-15T23:51:26.905Z,99379.84
2023-01-15T23:53:53.415Z,99372.97
2023-01-15T23:56:19.928Z,99370.34
2023-01-15T23:58:47.346Z,99377.97
